sensor_id;sensor_type;location;lat;lon;timestamp;P1;durP1;ratioP1;P2;durP2;ratioP2
7661;SDS011;30314;48.184;11.510;2022-11-03T00:01:31;18.03;;;7.03;;
7661;SDS011;30314;48.184;11.510;2022-11-03T00:03:59;12.23;;;6.77;;
7661;SDS011;30314;48.184;11.510;2022-11-03T00:06:27;11.03;;;6.30;;
7661;SDS011;30314;48.184;11.510;2022-11-03T00:08:58;12.87;;;6.07;;
7661;SDS011;30314;48.184;11.510;2022-11-03T00:11:26;9.80;;;5.33;;
7661;SDS011;30314;48.184;11.510;2022-11-03T00:13:55;14.30;;;6.20;;
7661;SDS011;30314;48.184;11.510;2022-11-03T00:16:23;10.70;;;5.97;;
7661;SDS011;30314;48.184;11.510;2022-11-03T00:18:50;12.97;;;6.00;;
7661;SDS011;30314;48.184;11.510;2022-11-03T00:21:18;12.17;;;5.93;;
7661;SDS011;30314;48.184;11.510;2022-11-03T00:23:46;8.30;;;4.93;;
7661;SDS011;30314;48.184;11.510;2022-11-03T00:26:16;10.30;;;5.83;;
7661;SDS011;30314;48.184;11.510;2022-11-03T00:28:46;9.20;;;5.23;;
7661;SDS011;30314;48.184;11.510;2022-11-03T00:31:18;11.83;;;6.20;;
7661;SDS011;30314;48.184;11.510;2022-11-03T00:33:47;12.40;;;5.20;;
7661;SDS011;30314;48.184;11.510;2022-11-03T00:36:16;8.87;;;4.60;;
7661;SDS011;30314;48.184;11.510;2022-11-03T00:38:46;10.80;;;5.00;;
7661;SDS011;30314;48.184;11.510;2022-11-03T00:41:14;10.60;;;5.17;;
7661;SDS011;30314;48.184;11.510;2022-11-03T00:43:46;7.60;;;5.03;;
7661;SDS011;30314;48.184;11.510;2022-11-03T00:46:15;8.73;;;4.33;;
7661;SDS011;30314;48.184;11.510;2022-11-03T00:48:43;9.67;;;5.27;;
7661;SDS011;30314;48.184;11.510;2022-11-03T00:51:12;8.30;;;4.30;;
7661;SDS011;30314;48.184;11.510;2022-11-03T00:53:42;14.33;;;5.23;;
7661;SDS011;30314;48.184;11.510;2022-11-03T00:56:14;11.43;;;4.97;;
7661;SDS011;30314;48.184;11.510;2022-11-03T00:58:45;9.30;;;5.17;;
7661;SDS011;30314;48.184;11.510;2022-11-03T01:01:13;7.00;;;3.93;;
7661;SDS011;30314;48.184;11.510;2022-11-03T01:03:43;13.53;;;4.77;;
7661;SDS011;30314;48.184;11.510;2022-11-03T01:06:32;5.93;;;3.80;;
7661;SDS011;30314;48.184;11.510;2022-11-03T01:09:16;7.80;;;5.20;;
7661;SDS011;30314;48.184;11.510;2022-11-03T01:11:52;13.00;;;5.03;;
7661;SDS011;30314;48.184;11.510;2022-11-03T01:14:24;8.73;;;4.87;;
7661;SDS011;30314;48.184;11.510;2022-11-03T01:16:53;8.77;;;4.03;;
7661;SDS011;30314;48.184;11.510;2022-11-03T01:19:21;8.80;;;3.37;;
7661;SDS011;30314;48.184;11.510;2022-11-03T01:21:50;6.50;;;3.97;;
7661;SDS011;30314;48.184;11.510;2022-11-03T01:24:18;7.63;;;4.33;;
7661;SDS011;30314;48.184;11.510;2022-11-03T01:26:48;8.30;;;4.43;;
7661;SDS011;30314;48.184;11.510;2022-11-03T01:29:16;5.67;;;3.80;;
7661;SDS011;30314;48.184;11.510;2022-11-03T01:31:44;7.10;;;4.40;;
7661;SDS011;30314;48.184;11.510;2022-11-03T01:34:12;16.60;;;4.73;;
7661;SDS011;30314;48.184;11.510;2022-11-03T01:36:41;9.53;;;3.60;;
7661;SDS011;30314;48.184;11.510;2022-11-03T01:39:10;8.93;;;5.20;;
7661;SDS011;30314;48.184;11.510;2022-11-03T01:41:39;7.93;;;4.13;;
7661;SDS011;30314;48.184;11.510;2022-11-03T01:47:08;8.70;;;3.90;;
7661;SDS011;30314;48.184;11.510;2022-11-03T01:49:43;8.70;;;4.80;;
7661;SDS011;30314;48.184;11.510;2022-11-03T01:52:14;10.53;;;3.83;;
7661;SDS011;30314;48.184;11.510;2022-11-03T01:54:47;13.07;;;4.60;;
7661;SDS011;30314;48.184;11.510;2022-11-03T01:57:19;9.00;;;3.77;;
7661;SDS011;30314;48.184;11.510;2022-11-03T01:59:52;10.13;;;4.57;;
7661;SDS011;30314;48.184;11.510;2022-11-03T02:02:23;5.30;;;3.97;;
7661;SDS011;30314;48.184;11.510;2022-11-03T02:04:52;6.20;;;4.20;;
7661;SDS011;30314;48.184;11.510;2022-11-03T02:07:23;12.03;;;5.20;;
7661;SDS011;30314;48.184;11.510;2022-11-03T02:09:55;11.23;;;4.53;;
7661;SDS011;30314;48.184;11.510;2022-11-03T02:12:23;10.07;;;5.07;;
7661;SDS011;30314;48.184;11.510;2022-11-03T02:14:53;7.77;;;4.13;;
7661;SDS011;30314;48.184;11.510;2022-11-03T02:17:24;6.50;;;4.60;;
7661;SDS011;30314;48.184;11.510;2022-11-03T02:19:55;10.13;;;4.60;;
7661;SDS011;30314;48.184;11.510;2022-11-03T02:22:35;7.37;;;4.00;;
7661;SDS011;30314;48.184;11.510;2022-11-03T02:25:16;8.67;;;4.37;;
7661;SDS011;30314;48.184;11.510;2022-11-03T02:27:56;8.10;;;4.97;;
7661;SDS011;30314;48.184;11.510;2022-11-03T02:30:24;10.20;;;4.37;;
7661;SDS011;30314;48.184;11.510;2022-11-03T02:32:55;7.87;;;3.93;;
7661;SDS011;30314;48.184;11.510;2022-11-03T02:35:30;8.40;;;4.40;;
7661;SDS011;30314;48.184;11.510;2022-11-03T02:38:03;9.70;;;4.03;;
7661;SDS011;30314;48.184;11.510;2022-11-03T02:40:37;10.53;;;4.20;;
7661;SDS011;30314;48.184;11.510;2022-11-03T02:43:11;9.07;;;4.50;;
7661;SDS011;30314;48.184;11.510;2022-11-03T02:45:41;8.67;;;4.40;;
7661;SDS011;30314;48.184;11.510;2022-11-03T02:48:13;7.70;;;4.30;;
7661;SDS011;30314;48.184;11.510;2022-11-03T02:50:42;10.53;;;4.77;;
7661;SDS011;30314;48.184;11.510;2022-11-03T02:53:10;8.73;;;4.57;;
7661;SDS011;30314;48.184;11.510;2022-11-03T02:55:41;5.27;;;3.90;;
7661;SDS011;30314;48.184;11.510;2022-11-03T02:58:20;7.50;;;4.20;;
7661;SDS011;30314;48.184;11.510;2022-11-03T03:00:57;9.80;;;4.40;;
7661;SDS011;30314;48.184;11.510;2022-11-03T03:03:29;7.60;;;4.10;;
7661;SDS011;30314;48.184;11.510;2022-11-03T03:06:02;7.70;;;4.27;;
7661;SDS011;30314;48.184;11.510;2022-11-03T03:08:34;6.10;;;4.07;;
7661;SDS011;30314;48.184;11.510;2022-11-03T03:11:11;7.50;;;4.70;;
7661;SDS011;30314;48.184;11.510;2022-11-03T03:13:40;10.03;;;5.03;;
7661;SDS011;30314;48.184;11.510;2022-11-03T03:16:10;8.47;;;4.23;;
7661;SDS011;30314;48.184;11.510;2022-11-03T03:18:46;8.27;;;4.43;;
7661;SDS011;30314;48.184;11.510;2022-11-03T03:21:18;5.10;;;3.50;;
7661;SDS011;30314;48.184;11.510;2022-11-03T03:23:50;6.73;;;3.90;;
7661;SDS011;30314;48.184;11.510;2022-11-03T03:26:25;7.47;;;4.60;;
7661;SDS011;30314;48.184;11.510;2022-11-03T03:28:56;10.67;;;3.93;;
7661;SDS011;30314;48.184;11.510;2022-11-03T03:31:30;5.90;;;4.07;;
7661;SDS011;30314;48.184;11.510;2022-11-03T03:34:05;13.53;;;4.30;;
7661;SDS011;30314;48.184;11.510;2022-11-03T03:36:55;10.10;;;4.50;;
7661;SDS011;30314;48.184;11.510;2022-11-03T03:39:25;5.90;;;4.07;;
7661;SDS011;30314;48.184;11.510;2022-11-03T03:41:59;10.97;;;4.77;;
7661;SDS011;30314;48.184;11.510;2022-11-03T03:44:29;9.33;;;4.60;;
7661;SDS011;30314;48.184;11.510;2022-11-03T03:46:59;6.20;;;3.80;;
7661;SDS011;30314;48.184;11.510;2022-11-03T03:49:30;5.70;;;4.00;;
7661;SDS011;30314;48.184;11.510;2022-11-03T03:51:57;7.47;;;4.33;;
7661;SDS011;30314;48.184;11.510;2022-11-03T03:54:25;7.10;;;4.23;;
7661;SDS011;30314;48.184;11.510;2022-11-03T03:56:54;10.33;;;4.10;;
7661;SDS011;30314;48.184;11.510;2022-11-03T03:59:28;7.80;;;4.17;;
7661;SDS011;30314;48.184;11.510;2022-11-03T04:01:56;6.47;;;4.23;;
7661;SDS011;30314;48.184;11.510;2022-11-03T04:04:24;6.03;;;3.87;;
7661;SDS011;30314;48.184;11.510;2022-11-03T04:06:52;7.27;;;4.10;;
7661;SDS011;30314;48.184;11.510;2022-11-03T04:09:40;6.30;;;3.70;;
7661;SDS011;30314;48.184;11.510;2022-11-03T04:12:08;13.30;;;4.63;;
7661;SDS011;30314;48.184;11.510;2022-11-03T04:14:55;10.33;;;4.80;;
7661;SDS011;30314;48.184;11.510;2022-11-03T04:17:41;8.73;;;4.03;;
7661;SDS011;30314;48.184;11.510;2022-11-03T04:20:28;11.30;;;4.33;;
7661;SDS011;30314;48.184;11.510;2022-11-03T04:23:13;6.57;;;4.17;;
7661;SDS011;30314;48.184;11.510;2022-11-03T04:25:41;5.47;;;3.77;;
7661;SDS011;30314;48.184;11.510;2022-11-03T04:28:17;6.30;;;4.10;;
7661;SDS011;30314;48.184;11.510;2022-11-03T04:30:46;7.33;;;4.17;;
7661;SDS011;30314;48.184;11.510;2022-11-03T04:33:15;5.70;;;3.80;;
7661;SDS011;30314;48.184;11.510;2022-11-03T04:35:43;6.77;;;4.07;;
7661;SDS011;30314;48.184;11.510;2022-11-03T04:38:20;6.17;;;4.37;;
7661;SDS011;30314;48.184;11.510;2022-11-03T04:40:51;6.50;;;4.40;;
7661;SDS011;30314;48.184;11.510;2022-11-03T04:43:21;4.67;;;3.40;;
7661;SDS011;30314;48.184;11.510;2022-11-03T04:45:51;8.13;;;4.50;;
7661;SDS011;30314;48.184;11.510;2022-11-03T04:48:20;6.37;;;3.90;;
7661;SDS011;30314;48.184;11.510;2022-11-03T04:50:49;11.50;;;4.90;;
7661;SDS011;30314;48.184;11.510;2022-11-03T04:53:20;5.70;;;3.90;;
7661;SDS011;30314;48.184;11.510;2022-11-03T04:55:49;7.40;;;4.30;;
7661;SDS011;30314;48.184;11.510;2022-11-03T04:58:19;9.43;;;4.10;;
7661;SDS011;30314;48.184;11.510;2022-11-03T05:00:49;6.13;;;4.00;;
7661;SDS011;30314;48.184;11.510;2022-11-03T05:03:21;5.90;;;3.70;;
7661;SDS011;30314;48.184;11.510;2022-11-03T05:05:50;11.87;;;4.80;;
7661;SDS011;30314;48.184;11.510;2022-11-03T05:08:18;8.07;;;4.43;;
7661;SDS011;30314;48.184;11.510;2022-11-03T05:10:47;8.60;;;4.77;;
7661;SDS011;30314;48.184;11.510;2022-11-03T05:13:17;9.07;;;4.43;;
7661;SDS011;30314;48.184;11.510;2022-11-03T05:15:47;6.87;;;4.20;;
7661;SDS011;30314;48.184;11.510;2022-11-03T05:18:19;11.60;;;4.00;;
7661;SDS011;30314;48.184;11.510;2022-11-03T05:20:49;8.30;;;5.13;;
7661;SDS011;30314;48.184;11.510;2022-11-03T05:23:20;4.70;;;3.60;;
7661;SDS011;30314;48.184;11.510;2022-11-03T05:25:50;4.77;;;3.70;;
7661;SDS011;30314;48.184;11.510;2022-11-03T05:28:20;6.67;;;3.93;;
7661;SDS011;30314;48.184;11.510;2022-11-03T05:30:51;6.87;;;3.63;;
7661;SDS011;30314;48.184;11.510;2022-11-03T05:33:27;4.70;;;3.27;;
7661;SDS011;30314;48.184;11.510;2022-11-03T05:35:56;5.77;;;4.03;;
7661;SDS011;30314;48.184;11.510;2022-11-03T05:38:28;6.80;;;3.33;;
7661;SDS011;30314;48.184;11.510;2022-11-03T05:40:58;7.27;;;4.30;;
7661;SDS011;30314;48.184;11.510;2022-11-03T05:43:27;12.77;;;4.10;;
7661;SDS011;30314;48.184;11.510;2022-11-03T05:45:56;8.97;;;5.40;;
7661;SDS011;30314;48.184;11.510;2022-11-03T05:48:30;8.57;;;4.30;;
7661;SDS011;30314;48.184;11.510;2022-11-03T05:51:01;6.17;;;4.63;;
7661;SDS011;30314;48.184;11.510;2022-11-03T05:53:37;5.83;;;4.13;;
7661;SDS011;30314;48.184;11.510;2022-11-03T05:56:09;7.57;;;4.60;;
7661;SDS011;30314;48.184;11.510;2022-11-03T05:58:42;6.83;;;4.27;;
7661;SDS011;30314;48.184;11.510;2022-11-03T06:01:11;13.67;;;5.83;;
7661;SDS011;30314;48.184;11.510;2022-11-03T06:03:44;6.83;;;5.10;;
7661;SDS011;30314;48.184;11.510;2022-11-03T06:06:14;8.67;;;5.23;;
7661;SDS011;30314;48.184;11.510;2022-11-03T06:08:45;11.90;;;6.40;;
7661;SDS011;30314;48.184;11.510;2022-11-03T06:11:15;10.43;;;5.43;;
7661;SDS011;30314;48.184;11.510;2022-11-03T06:13:49;10.83;;;5.90;;
7661;SDS011;30314;48.184;11.510;2022-11-03T06:16:24;19.13;;;6.97;;
7661;SDS011;30314;48.184;11.510;2022-11-03T06:19:10;10.50;;;6.63;;
7661;SDS011;30314;48.184;11.510;2022-11-03T06:21:44;15.50;;;6.93;;
7661;SDS011;30314;48.184;11.510;2022-11-03T06:24:13;11.90;;;6.40;;
7661;SDS011;30314;48.184;11.510;2022-11-03T06:26:42;12.93;;;6.67;;
7661;SDS011;30314;48.184;11.510;2022-11-03T06:29:13;9.30;;;6.77;;
7661;SDS011;30314;48.184;11.510;2022-11-03T06:31:42;11.40;;;6.50;;
7661;SDS011;30314;48.184;11.510;2022-11-03T06:34:20;14.93;;;6.80;;
7661;SDS011;30314;48.184;11.510;2022-11-03T06:36:54;10.03;;;5.93;;
7661;SDS011;30314;48.184;11.510;2022-11-03T06:39:23;10.03;;;6.03;;
7661;SDS011;30314;48.184;11.510;2022-11-03T06:41:51;9.20;;;6.37;;
7661;SDS011;30314;48.184;11.510;2022-11-03T06:44:21;16.93;;;7.93;;
7661;SDS011;30314;48.184;11.510;2022-11-03T06:46:50;24.27;;;7.43;;
7661;SDS011;30314;48.184;11.510;2022-11-03T06:49:25;11.70;;;7.30;;
7661;SDS011;30314;48.184;11.510;2022-11-03T06:51:55;15.33;;;6.67;;
7661;SDS011;30314;48.184;11.510;2022-11-03T06:54:25;12.00;;;7.63;;
7661;SDS011;30314;48.184;11.510;2022-11-03T06:56:53;12.70;;;7.40;;
7661;SDS011;30314;48.184;11.510;2022-11-03T06:59:20;7.90;;;5.60;;
7661;SDS011;30314;48.184;11.510;2022-11-03T07:01:50;10.13;;;6.23;;
7661;SDS011;30314;48.184;11.510;2022-11-03T07:04:21;10.80;;;6.50;;
7661;SDS011;30314;48.184;11.510;2022-11-03T07:06:54;12.73;;;7.30;;
7661;SDS011;30314;48.184;11.510;2022-11-03T07:09:25;11.90;;;7.00;;
7661;SDS011;30314;48.184;11.510;2022-11-03T07:11:53;11.80;;;6.93;;
7661;SDS011;30314;48.184;11.510;2022-11-03T07:14:23;13.53;;;6.67;;
7661;SDS011;30314;48.184;11.510;2022-11-03T07:16:54;16.97;;;6.90;;
7661;SDS011;30314;48.184;11.510;2022-11-03T07:19:28;14.90;;;7.83;;
7661;SDS011;30314;48.184;11.510;2022-11-03T07:21:59;24.53;;;10.43;;
7661;SDS011;30314;48.184;11.510;2022-11-03T07:24:29;21.73;;;11.43;;
7661;SDS011;30314;48.184;11.510;2022-11-03T07:27:00;22.50;;;10.17;;
7661;SDS011;30314;48.184;11.510;2022-11-03T07:29:33;28.33;;;10.30;;
7661;SDS011;30314;48.184;11.510;2022-11-03T07:32:01;29.40;;;11.33;;
7661;SDS011;30314;48.184;11.510;2022-11-03T07:34:37;26.73;;;10.47;;
7661;SDS011;30314;48.184;11.510;2022-11-03T07:37:06;23.27;;;11.70;;
7661;SDS011;30314;48.184;11.510;2022-11-03T07:39:40;29.17;;;11.37;;
7661;SDS011;30314;48.184;11.510;2022-11-03T07:42:10;32.93;;;13.00;;
7661;SDS011;30314;48.184;11.510;2022-11-03T07:44:41;20.87;;;11.43;;
7661;SDS011;30314;48.184;11.510;2022-11-03T07:47:10;32.40;;;12.20;;
7661;SDS011;30314;48.184;11.510;2022-11-03T07:49:41;21.03;;;10.80;;
7661;SDS011;30314;48.184;11.510;2022-11-03T07:52:09;20.20;;;10.40;;
7661;SDS011;30314;48.184;11.510;2022-11-03T07:54:40;18.73;;;9.53;;
7661;SDS011;30314;48.184;11.510;2022-11-03T07:57:10;18.97;;;9.93;;
7661;SDS011;30314;48.184;11.510;2022-11-03T07:59:42;14.10;;;9.00;;
7661;SDS011;30314;48.184;11.510;2022-11-03T08:02:16;23.80;;;10.03;;
7661;SDS011;30314;48.184;11.510;2022-11-03T08:04:57;12.93;;;9.03;;
7661;SDS011;30314;48.184;11.510;2022-11-03T08:07:25;18.53;;;9.93;;
7661;SDS011;30314;48.184;11.510;2022-11-03T08:09:53;18.03;;;10.27;;
7661;SDS011;30314;48.184;11.510;2022-11-03T08:12:21;18.37;;;10.10;;
7661;SDS011;30314;48.184;11.510;2022-11-03T08:14:49;18.17;;;10.07;;
7661;SDS011;30314;48.184;11.510;2022-11-03T08:17:17;17.83;;;10.23;;
7661;SDS011;30314;48.184;11.510;2022-11-03T08:19:44;18.37;;;9.33;;
7661;SDS011;30314;48.184;11.510;2022-11-03T08:22:13;21.10;;;10.40;;
7661;SDS011;30314;48.184;11.510;2022-11-03T08:24:41;19.00;;;10.07;;
7661;SDS011;30314;48.184;11.510;2022-11-03T08:27:09;18.23;;;9.87;;
7661;SDS011;30314;48.184;11.510;2022-11-03T08:29:37;15.03;;;9.50;;
7661;SDS011;30314;48.184;11.510;2022-11-03T08:32:04;25.23;;;11.17;;
7661;SDS011;30314;48.184;11.510;2022-11-03T08:34:32;26.40;;;11.70;;
7661;SDS011;30314;48.184;11.510;2022-11-03T08:37:00;23.37;;;11.33;;
7661;SDS011;30314;48.184;11.510;2022-11-03T08:39:29;33.70;;;10.23;;
7661;SDS011;30314;48.184;11.510;2022-11-03T08:41:57;15.27;;;9.00;;
7661;SDS011;30314;48.184;11.510;2022-11-03T08:44:25;19.03;;;11.23;;
7661;SDS011;30314;48.184;11.510;2022-11-03T08:46:52;19.40;;;10.97;;
7661;SDS011;30314;48.184;11.510;2022-11-03T08:49:20;18.90;;;9.97;;
7661;SDS011;30314;48.184;11.510;2022-11-03T08:51:48;13.40;;;9.20;;
7661;SDS011;30314;48.184;11.510;2022-11-03T08:54:15;15.73;;;10.00;;
7661;SDS011;30314;48.184;11.510;2022-11-03T08:56:44;18.70;;;11.53;;
7661;SDS011;30314;48.184;11.510;2022-11-03T08:59:14;19.90;;;10.10;;
7661;SDS011;30314;48.184;11.510;2022-11-03T09:01:43;20.43;;;10.90;;
7661;SDS011;30314;48.184;11.510;2022-11-03T09:04:11;34.57;;;10.40;;
7661;SDS011;30314;48.184;11.510;2022-11-03T09:06:39;18.57;;;11.10;;
7661;SDS011;30314;48.184;11.510;2022-11-03T09:09:06;21.57;;;11.23;;
7661;SDS011;30314;48.184;11.510;2022-11-03T09:11:55;25.23;;;12.70;;
7661;SDS011;30314;48.184;11.510;2022-11-03T09:14:23;18.83;;;11.57;;
7661;SDS011;30314;48.184;11.510;2022-11-03T09:16:51;17.40;;;11.70;;
7661;SDS011;30314;48.184;11.510;2022-11-03T09:19:19;18.10;;;11.87;;
7661;SDS011;30314;48.184;11.510;2022-11-03T09:21:46;19.27;;;13.07;;
7661;SDS011;30314;48.184;11.510;2022-11-03T09:24:14;20.40;;;13.70;;
7661;SDS011;30314;48.184;11.510;2022-11-03T09:26:42;17.87;;;11.87;;
7661;SDS011;30314;48.184;11.510;2022-11-03T09:29:11;22.10;;;12.63;;
7661;SDS011;30314;48.184;11.510;2022-11-03T09:31:39;20.00;;;12.90;;
7661;SDS011;30314;48.184;11.510;2022-11-03T09:34:06;28.17;;;14.23;;
7661;SDS011;30314;48.184;11.510;2022-11-03T09:36:34;26.03;;;14.30;;
7661;SDS011;30314;48.184;11.510;2022-11-03T09:39:02;23.87;;;13.83;;
7661;SDS011;30314;48.184;11.510;2022-11-03T09:41:29;23.87;;;15.20;;
7661;SDS011;30314;48.184;11.510;2022-11-03T09:44:19;23.10;;;15.30;;
7661;SDS011;30314;48.184;11.510;2022-11-03T09:46:47;25.10;;;16.23;;
7661;SDS011;30314;48.184;11.510;2022-11-03T09:49:23;21.33;;;15.07;;
7661;SDS011;30314;48.184;11.510;2022-11-03T09:51:51;23.40;;;14.53;;
7661;SDS011;30314;48.184;11.510;2022-11-03T09:54:19;27.23;;;15.80;;
7661;SDS011;30314;48.184;11.510;2022-11-03T09:56:47;19.80;;;13.60;;
7661;SDS011;30314;48.184;11.510;2022-11-03T09:59:15;20.23;;;13.03;;
7661;SDS011;30314;48.184;11.510;2022-11-03T10:01:45;20.20;;;12.87;;
7661;SDS011;30314;48.184;11.510;2022-11-03T10:04:16;22.00;;;13.00;;
7661;SDS011;30314;48.184;11.510;2022-11-03T10:06:48;22.10;;;13.67;;
7661;SDS011;30314;48.184;11.510;2022-11-03T10:09:15;25.40;;;13.00;;
7661;SDS011;30314;48.184;11.510;2022-11-03T10:11:45;24.53;;;13.93;;
7661;SDS011;30314;48.184;11.510;2022-11-03T10:14:14;20.70;;;13.47;;
7661;SDS011;30314;48.184;11.510;2022-11-03T10:16:46;20.60;;;12.83;;
7661;SDS011;30314;48.184;11.510;2022-11-03T10:19:19;21.60;;;13.60;;
7661;SDS011;30314;48.184;11.510;2022-11-03T10:21:46;22.40;;;13.63;;
7661;SDS011;30314;48.184;11.510;2022-11-03T10:24:17;19.80;;;13.10;;
7661;SDS011;30314;48.184;11.510;2022-11-03T10:26:46;21.40;;;13.77;;
7661;SDS011;30314;48.184;11.510;2022-11-03T10:29:16;23.20;;;12.93;;
7661;SDS011;30314;48.184;11.510;2022-11-03T10:31:48;18.00;;;12.17;;
7661;SDS011;30314;48.184;11.510;2022-11-03T10:34:24;17.50;;;11.50;;
7661;SDS011;30314;48.184;11.510;2022-11-03T10:37:11;20.57;;;12.63;;
7661;SDS011;30314;48.184;11.510;2022-11-03T10:39:43;16.90;;;11.27;;
7661;SDS011;30314;48.184;11.510;2022-11-03T10:42:18;16.80;;;10.77;;
7661;SDS011;30314;48.184;11.510;2022-11-03T10:44:47;18.30;;;10.43;;
7661;SDS011;30314;48.184;11.510;2022-11-03T10:47:24;13.57;;;9.40;;
7661;SDS011;30314;48.184;11.510;2022-11-03T10:49:57;12.50;;;9.37;;
7661;SDS011;30314;48.184;11.510;2022-11-03T10:52:26;17.67;;;10.50;;
7661;SDS011;30314;48.184;11.510;2022-11-03T10:54:56;15.23;;;10.30;;
7661;SDS011;30314;48.184;11.510;2022-11-03T10:57:25;15.60;;;10.40;;
7661;SDS011;30314;48.184;11.510;2022-11-03T10:59:53;15.90;;;8.90;;
7661;SDS011;30314;48.184;11.510;2022-11-03T11:02:24;14.00;;;10.30;;
7661;SDS011;30314;48.184;11.510;2022-11-03T11:04:57;18.20;;;11.17;;
7661;SDS011;30314;48.184;11.510;2022-11-03T11:07:28;16.33;;;9.97;;
7661;SDS011;30314;48.184;11.510;2022-11-03T11:10:03;12.20;;;9.50;;
7661;SDS011;30314;48.184;11.510;2022-11-03T11:12:33;14.80;;;9.33;;
7661;SDS011;30314;48.184;11.510;2022-11-03T11:15:02;11.93;;;9.20;;
7661;SDS011;30314;48.184;11.510;2022-11-03T11:17:51;13.60;;;8.60;;
7661;SDS011;30314;48.184;11.510;2022-11-03T11:20:30;10.70;;;7.93;;
7661;SDS011;30314;48.184;11.510;2022-11-03T11:36:00;13.20;;;9.00;;
7661;SDS011;30314;48.184;11.510;2022-11-03T11:44:39;15.03;;;9.30;;
7661;SDS011;30314;48.184;11.510;2022-11-03T11:47:22;12.17;;;7.90;;
7661;SDS011;30314;48.184;11.510;2022-11-03T11:52:43;11.73;;;7.87;;
7661;SDS011;30314;48.184;11.510;2022-11-03T11:55:16;11.80;;;8.90;;
7661;SDS011;30314;48.184;11.510;2022-11-03T11:57:46;10.63;;;8.87;;
7661;SDS011;30314;48.184;11.510;2022-11-03T12:00:19;13.53;;;8.13;;
7661;SDS011;30314;48.184;11.510;2022-11-03T12:02:49;13.30;;;8.90;;
7661;SDS011;30314;48.184;11.510;2022-11-03T12:05:18;13.53;;;8.23;;
7661;SDS011;30314;48.184;11.510;2022-11-03T12:07:48;13.43;;;7.70;;
7661;SDS011;30314;48.184;11.510;2022-11-03T12:10:19;12.63;;;8.10;;
7661;SDS011;30314;48.184;11.510;2022-11-03T12:12:49;12.00;;;8.83;;
7661;SDS011;30314;48.184;11.510;2022-11-03T12:18:29;20.53;;;10.63;;
7661;SDS011;30314;48.184;11.510;2022-11-03T12:21:05;15.77;;;8.70;;
7661;SDS011;30314;48.184;11.510;2022-11-03T12:23:38;11.80;;;7.53;;
7661;SDS011;30314;48.184;11.510;2022-11-03T12:26:16;17.73;;;8.53;;
7661;SDS011;30314;48.184;11.510;2022-11-03T12:28:45;13.73;;;9.40;;
7661;SDS011;30314;48.184;11.510;2022-11-03T12:31:12;17.97;;;8.87;;
7661;SDS011;30314;48.184;11.510;2022-11-03T12:33:40;13.07;;;8.33;;
7661;SDS011;30314;48.184;11.510;2022-11-03T12:36:08;12.60;;;8.30;;
7661;SDS011;30314;48.184;11.510;2022-11-03T12:38:36;14.83;;;8.80;;
7661;SDS011;30314;48.184;11.510;2022-11-03T12:41:04;10.93;;;8.03;;
7661;SDS011;30314;48.184;11.510;2022-11-03T12:43:51;12.33;;;7.60;;
7661;SDS011;30314;48.184;11.510;2022-11-03T12:46:21;11.73;;;8.90;;
7661;SDS011;30314;48.184;11.510;2022-11-03T12:48:49;11.70;;;9.07;;
7661;SDS011;30314;48.184;11.510;2022-11-03T12:51:18;20.20;;;8.77;;
7661;SDS011;30314;48.184;11.510;2022-11-03T12:53:47;8.97;;;7.10;;
7661;SDS011;30314;48.184;11.510;2022-11-03T12:56:16;9.30;;;7.30;;
7661;SDS011;30314;48.184;11.510;2022-11-03T12:58:45;11.87;;;8.93;;
7661;SDS011;30314;48.184;11.510;2022-11-03T13:01:16;13.70;;;8.30;;
7661;SDS011;30314;48.184;11.510;2022-11-03T13:03:48;10.90;;;7.97;;
7661;SDS011;30314;48.184;11.510;2022-11-03T13:06:15;12.73;;;8.40;;
7661;SDS011;30314;48.184;11.510;2022-11-03T13:08:43;11.67;;;8.57;;
7661;SDS011;30314;48.184;11.510;2022-11-03T13:11:16;16.70;;;10.77;;
7661;SDS011;30314;48.184;11.510;2022-11-03T13:14:02;20.53;;;11.60;;
7661;SDS011;30314;48.184;11.510;2022-11-03T13:16:35;19.23;;;13.00;;
7661;SDS011;30314;48.184;11.510;2022-11-03T13:19:04;12.90;;;8.60;;
7661;SDS011;30314;48.184;11.510;2022-11-03T13:21:33;15.27;;;8.27;;
7661;SDS011;30314;48.184;11.510;2022-11-03T13:24:01;15.13;;;8.53;;
7661;SDS011;30314;48.184;11.510;2022-11-03T13:26:28;13.20;;;7.87;;
7661;SDS011;30314;48.184;11.510;2022-11-03T13:28:56;11.50;;;8.53;;
7661;SDS011;30314;48.184;11.510;2022-11-03T13:31:24;9.70;;;8.70;;
7661;SDS011;30314;48.184;11.510;2022-11-03T13:33:53;11.47;;;8.40;;
7661;SDS011;30314;48.184;11.510;2022-11-03T13:36:20;10.90;;;7.77;;
7661;SDS011;30314;48.184;11.510;2022-11-03T13:38:49;9.80;;;6.83;;
7661;SDS011;30314;48.184;11.510;2022-11-03T13:41:17;10.30;;;6.83;;
7661;SDS011;30314;48.184;11.510;2022-11-03T13:43:45;8.60;;;7.03;;
7661;SDS011;30314;48.184;11.510;2022-11-03T13:46:13;9.20;;;6.47;;
7661;SDS011;30314;48.184;11.510;2022-11-03T13:48:40;9.93;;;6.47;;
7661;SDS011;30314;48.184;11.510;2022-11-03T13:51:29;10.50;;;6.23;;
7661;SDS011;30314;48.184;11.510;2022-11-03T13:53:57;10.50;;;7.07;;
7661;SDS011;30314;48.184;11.510;2022-11-03T13:56:45;10.60;;;6.53;;
7661;SDS011;30314;48.184;11.510;2022-11-03T13:59:33;8.23;;;6.37;;
7661;SDS011;30314;48.184;11.510;2022-11-03T14:02:01;15.30;;;7.33;;
7661;SDS011;30314;48.184;11.510;2022-11-03T14:04:48;12.20;;;6.73;;
7661;SDS011;30314;48.184;11.510;2022-11-03T14:07:17;12.70;;;7.30;;
7661;SDS011;30314;48.184;11.510;2022-11-03T14:09:45;11.70;;;7.63;;
7661;SDS011;30314;48.184;11.510;2022-11-03T14:12:13;10.17;;;7.23;;
7661;SDS011;30314;48.184;11.510;2022-11-03T14:14:54;11.97;;;7.23;;
7661;SDS011;30314;48.184;11.510;2022-11-03T14:17:22;11.73;;;6.43;;
7661;SDS011;30314;48.184;11.510;2022-11-03T14:19:50;9.50;;;7.03;;
7661;SDS011;30314;48.184;11.510;2022-11-03T14:22:25;11.13;;;7.73;;
7661;SDS011;30314;48.184;11.510;2022-11-03T14:24:55;10.70;;;6.90;;
7661;SDS011;30314;48.184;11.510;2022-11-03T14:27:23;11.10;;;8.03;;
7661;SDS011;30314;48.184;11.510;2022-11-03T14:29:51;13.13;;;7.70;;
7661;SDS011;30314;48.184;11.510;2022-11-03T14:32:19;21.97;;;9.17;;
7661;SDS011;30314;48.184;11.510;2022-11-03T14:34:47;12.40;;;8.00;;
7661;SDS011;30314;48.184;11.510;2022-11-03T14:37:15;15.50;;;8.40;;
7661;SDS011;30314;48.184;11.510;2022-11-03T14:39:44;12.60;;;7.93;;
7661;SDS011;30314;48.184;11.510;2022-11-03T14:42:12;9.47;;;6.93;;
7661;SDS011;30314;48.184;11.510;2022-11-03T14:44:41;11.20;;;8.10;;
7661;SDS011;30314;48.184;11.510;2022-11-03T14:47:12;15.90;;;8.97;;
7661;SDS011;30314;48.184;11.510;2022-11-03T14:49:42;12.63;;;8.40;;
7661;SDS011;30314;48.184;11.510;2022-11-03T14:52:11;13.23;;;7.37;;
7661;SDS011;30314;48.184;11.510;2022-11-03T14:54:39;12.63;;;9.17;;
7661;SDS011;30314;48.184;11.510;2022-11-03T14:57:09;11.20;;;6.90;;
7661;SDS011;30314;48.184;11.510;2022-11-03T14:59:38;17.80;;;8.70;;
7661;SDS011;30314;48.184;11.510;2022-11-03T15:02:06;11.73;;;8.73;;
7661;SDS011;30314;48.184;11.510;2022-11-03T15:04:33;14.93;;;9.53;;
7661;SDS011;30314;48.184;11.510;2022-11-03T15:07:01;13.33;;;8.47;;
7661;SDS011;30314;48.184;11.510;2022-11-03T15:09:29;13.37;;;8.70;;
7661;SDS011;30314;48.184;11.510;2022-11-03T15:11:56;11.60;;;9.23;;
7661;SDS011;30314;48.184;11.510;2022-11-03T15:14:25;14.73;;;9.80;;
7661;SDS011;30314;48.184;11.510;2022-11-03T15:16:55;15.43;;;9.93;;
7661;SDS011;30314;48.184;11.510;2022-11-03T15:19:22;22.30;;;9.23;;
7661;SDS011;30314;48.184;11.510;2022-11-03T15:21:50;15.70;;;9.67;;
7661;SDS011;30314;48.184;11.510;2022-11-03T15:24:18;12.00;;;9.10;;
7661;SDS011;30314;48.184;11.510;2022-11-03T15:27:05;13.70;;;8.87;;